createdAt,value
2023-03-24T00:00:10.724Z,73.78
2023-03-24T00:02:41.532Z,74.69
2023-03-24T00:05:11.621Z,73.82
2023-03-24T00:07:39.932Z,74.52
2023-03-24T00:10:09.612Z,74.26
2023-03-24T00:12:37.913Z,73.58
2023-03-24T00:15:08.367Z,74.68
2023-03-24T00:17:36.160Z,74.74
2023-03-24T00:20:07.453Z,74.84
2023-03-24T00:22:35.569Z,74.68
2023-03-24T00:25:03.731Z,72.02
2023-03-24T00:27:30.996Z,72.42
2023-03-24T00:29:58.927Z,71.80
2023-03-24T00:32:26.830Z,71.39
2023-03-24T00:34:53.704Z,72.78
2023-03-24T00:37:20.689Z,69.74
2023-03-24T00:39:47.319Z,72.24
2023-03-24T00:42:13.867Z,71.08
2023-03-24T00:44:40.559Z,69.24
2023-03-24T00:47:07.084Z,68.10
2023-03-24T00:49:52.629Z,68.49
2023-03-24T00:52:21.772Z,68.74
2023-03-24T00:54:58.581Z,67.40
2023-03-24T00:57:25.541Z,66.50
2023-03-24T00:59:53.712Z,68.05
2023-03-24T01:02:25.494Z,66.89
2023-03-24T01:04:55.804Z,67.36
2023-03-24T01:07:23.975Z,66.46
2023-03-24T01:09:56.861Z,66.35
2023-03-24T01:12:28.301Z,66.05
2023-03-24T01:14:55.304Z,66.24
2023-03-24T01:17:24.802Z,64.90
2023-03-24T01:19:52.518Z,65.42
2023-03-24T01:22:20.165Z,64.29
2023-03-24T01:24:48.031Z,64.37
2023-03-24T01:27:15.759Z,64.53
2023-03-24T01:29:42.415Z,64.76
2023-03-24T01:32:09.391Z,66.48
2023-03-24T01:34:36.171Z,66.85
2023-03-24T01:37:03.839Z,64.95
2023-03-24T01:39:30.955Z,66.02
2023-03-24T01:41:57.978Z,65.35
2023-03-24T01:44:36.070Z,65.14
2023-03-24T01:47:07.194Z,65.16
2023-03-24T01:49:40.294Z,68.21
2023-03-24T01:52:13.289Z,68.88
2023-03-24T01:54:45.579Z,65.83
2023-03-24T01:57:15.289Z,65.06
2023-03-24T01:59:46.309Z,64.97
2023-03-24T02:02:14.048Z,65.04
2023-03-24T02:04:45.277Z,65.87
2023-03-24T02:07:20.677Z,66.18
2023-03-24T02:09:47.926Z,65.67
2023-03-24T02:12:16.334Z,67.73
2023-03-24T02:14:43.878Z,64.78
2023-03-24T02:17:53.939Z,65.77
2023-03-24T02:20:38.588Z,67.52
2023-03-24T02:23:31.512Z,66.42
2023-03-24T02:26:26.598Z,66.86
2023-03-24T02:29:28.595Z,66.55
2023-03-24T02:32:25.838Z,65.31
2023-03-24T02:35:23.480Z,66.20
2023-03-24T02:38:30.452Z,68.55
2023-03-24T02:41:15.199Z,71.53
2023-03-24T02:44:12.811Z,72.47
2023-03-24T02:46:47.527Z,69.81
2023-03-24T02:49:34.380Z,76.07
2023-03-24T02:52:10.048Z,69.24
2023-03-24T02:54:54.694Z,69.71
2023-03-24T02:57:47.064Z,69.52
2023-03-24T03:00:21.401Z,69.79
2023-03-24T03:02:58.635Z,72.31
2023-03-24T03:05:34.035Z,71.31
2023-03-24T03:08:05.193Z,73.78
2023-03-24T03:10:37.542Z,73.16
2023-03-24T03:13:12.993Z,75.20
2023-03-24T03:15:44.844Z,71.85
2023-03-24T03:18:22.326Z,70.59
2023-03-24T03:20:55.118Z,72.16
2023-03-24T03:23:24.334Z,69.73
2023-03-24T03:25:56.880Z,68.43
2023-03-24T03:28:29.274Z,71.13
2023-03-24T03:31:00.424Z,68.79
2023-03-24T03:33:36.838Z,70.43
2023-03-24T03:36:11.681Z,75.02
2023-03-24T03:38:48.988Z,73.29
2023-03-24T03:41:17.806Z,73.25
2023-03-24T03:43:48.068Z,69.90
2023-03-24T03:46:16.216Z,71.62
2023-03-24T03:48:43.598Z,71.86
2023-03-24T03:51:14.341Z,76.70
2023-03-24T03:53:51.444Z,76.09
2023-03-24T03:56:22.876Z,76.56
2023-03-24T03:58:52.823Z,78.02
2023-03-24T04:01:22.622Z,77.12
2023-03-24T04:04:32.632Z,72.73
2023-03-24T04:07:30.242Z,75.78
2023-03-24T04:10:30.485Z,74.50
2023-03-24T04:13:18.862Z,76.85
2023-03-24T04:15:57.994Z,77.91
2023-03-24T04:18:39.037Z,77.92
2023-03-24T04:21:33.906Z,73.05
2023-03-24T04:24:28.456Z,76.04
2023-03-24T04:27:06.082Z,77.36
2023-03-24T04:30:01.880Z,75.86
2023-03-24T04:32:46.788Z,73.88
2023-03-24T04:35:30.738Z,76.55
2023-03-24T04:38:22.667Z,76.83
2023-03-24T04:40:54.974Z,76.92
2023-03-24T04:43:36.018Z,76.94
2023-03-24T04:46:05.188Z,76.74
2023-03-24T04:48:32.799Z,75.27
2023-03-24T04:51:03.146Z,76.64
2023-03-24T04:53:30.827Z,76.08
2023-03-24T04:56:40.159Z,76.64
2023-03-24T04:59:07.698Z,75.44
2023-03-24T05:01:36.846Z,74.24
2023-03-24T05:04:07.798Z,77.35
2023-03-24T05:06:34.552Z,77.56
2023-03-24T05:09:01.147Z,75.95
2023-03-24T05:11:28.639Z,77.89
2023-03-24T05:13:56.984Z,78.31
2023-03-24T05:16:24.228Z,79.64
2023-03-24T05:18:51.398Z,80.35
2023-03-24T05:21:19.939Z,81.33
2023-03-24T05:23:46.641Z,81.69
2023-03-24T05:26:13.343Z,82.44
2023-03-24T05:28:42.661Z,82.79
2023-03-24T05:31:11.192Z,84.35
2023-03-24T05:33:38.127Z,84.53
2023-03-24T05:36:05.425Z,85.72
2023-03-24T05:38:32.537Z,86.01
2023-03-24T05:41:00.714Z,86.52
2023-03-24T05:43:28.357Z,86.52
2023-03-24T05:45:55.941Z,87.23
2023-03-24T05:48:22.930Z,86.77
2023-03-24T05:50:51.935Z,87.37
2023-03-24T05:53:20.066Z,88.21
2023-03-24T05:55:49.162Z,88.67
2023-03-24T05:58:20.624Z,88.90
2023-03-24T06:00:47.795Z,89.11
2023-03-24T06:03:17.042Z,89.42
2023-03-24T06:05:45.161Z,89.23
2023-03-24T06:08:11.919Z,89.57
2023-03-24T06:10:40.147Z,89.76
2023-03-24T06:13:08.426Z,90.16
2023-03-24T06:15:38.761Z,90.48
2023-03-24T06:18:07.318Z,87.13
2023-03-24T06:20:35.360Z,90.09
2023-03-24T06:23:02.771Z,90.93
2023-03-24T06:25:30.670Z,90.02
2023-03-24T06:28:03.308Z,91.13
2023-03-24T06:30:31.048Z,91.66
2023-03-24T06:32:57.636Z,91.57
2023-03-24T06:35:24.314Z,92.22
2023-03-24T06:37:51.272Z,92.93
2023-03-24T06:40:17.877Z,88.83
2023-03-24T06:42:45.875Z,92.58
2023-03-24T06:45:12.812Z,93.06
2023-03-24T06:47:39.614Z,93.45
2023-03-24T06:50:07.110Z,94.03
2023-03-24T06:52:35.005Z,94.71
2023-03-24T06:55:02.912Z,95.32
2023-03-24T06:57:30.114Z,95.18
2023-03-24T07:00:05.074Z,94.62
2023-03-24T07:02:35.008Z,94.94
2023-03-24T07:05:06.663Z,95.24
2023-03-24T07:10:07.504Z,94.22
2023-03-24T07:12:34.941Z,95.69
2023-03-24T07:15:03.822Z,95.69
2023-03-24T07:17:30.941Z,96.55
2023-03-24T07:19:58.783Z,96.38
2023-03-24T07:22:27.660Z,94.76
2023-03-24T07:25:00.997Z,97.26
2023-03-24T07:27:32.239Z,98.28
2023-03-24T07:29:59.860Z,98.08
2023-03-24T07:32:29.407Z,98.75
2023-03-24T07:34:56.939Z,98.50
2023-03-24T07:37:23.614Z,98.71
2023-03-24T07:39:50.289Z,98.79
2023-03-24T07:42:17.249Z,98.77
2023-03-24T07:44:45.802Z,98.83
2023-03-24T07:47:12.579Z,99.53
2023-03-24T07:49:39.368Z,98.84
2023-03-24T07:52:06.732Z,98.43
2023-03-24T07:54:34.147Z,99.02
2023-03-24T07:57:00.784Z,96.16
2023-03-24T07:59:28.121Z,98.18
2023-03-24T08:01:58.437Z,98.11
2023-03-24T08:04:28.836Z,98.84
2023-03-24T08:06:56.636Z,99.84
2023-03-24T08:09:24.472Z,97.16
2023-03-24T08:11:51.285Z,97.33
2023-03-24T08:14:17.888Z,99.66
2023-03-24T08:16:45.688Z,100.00
2023-03-24T08:19:12.521Z,100.00
2023-03-24T08:21:39.025Z,99.91
2023-03-24T08:24:06.334Z,100.00
2023-03-24T08:26:34.602Z,99.42
2023-03-24T08:29:01.691Z,100.00
2023-03-24T08:31:36.313Z,100.00
2023-03-24T08:34:04.230Z,100.00
2023-03-24T08:36:31.172Z,100.00
2023-03-24T08:38:57.681Z,100.00
2023-03-24T08:41:34.298Z,100.00
2023-03-24T08:44:06.264Z,99.98
2023-03-24T08:46:34.345Z,99.78
2023-03-24T08:49:01.885Z,100.00
2023-03-24T08:51:28.671Z,100.00
2023-03-24T08:53:55.579Z,100.00
2023-03-24T08:56:22.458Z,100.00
2023-03-24T08:58:50.654Z,99.92
2023-03-24T09:01:17.990Z,99.87
2023-03-24T09:03:46.297Z,99.52
2023-03-24T09:06:15.039Z,98.84
2023-03-24T09:08:42.074Z,98.85
2023-03-24T09:11:15.977Z,98.78
2023-03-24T09:13:42.895Z,98.11
2023-03-24T09:16:09.849Z,98.57
2023-03-24T09:18:36.998Z,97.94
2023-03-24T09:21:04.385Z,99.36
2023-03-24T09:23:31.008Z,98.87
2023-03-24T09:25:58.238Z,98.84
2023-03-24T09:28:25.329Z,98.15
2023-03-24T09:30:57.780Z,97.77
2023-03-24T09:33:24.611Z,97.54
2023-03-24T09:36:00.934Z,97.18
2023-03-24T09:38:29.211Z,96.98
2023-03-24T09:41:01.850Z,96.51
2023-03-24T09:43:51.644Z,96.52
2023-03-24T09:46:34.853Z,96.87
2023-03-24T09:49:03.504Z,96.95
2023-03-24T09:51:37.662Z,96.41
2023-03-24T09:54:43.974Z,96.04
2023-03-24T09:57:36.635Z,96.64
2023-03-24T10:00:24.977Z,98.81
2023-03-24T10:02:54.252Z,100.00
2023-03-24T10:05:44.866Z,100.00
2023-03-24T10:08:18.021Z,100.00
2023-03-24T10:11:14.940Z,100.00
2023-03-24T10:13:55.059Z,100.00
2023-03-24T10:16:31.631Z,100.00
2023-03-24T10:19:24.841Z,100.00
2023-03-24T10:22:02.601Z,100.00
2023-03-24T10:24:41.639Z,99.85
2023-03-24T10:27:24.177Z,99.71
2023-03-24T10:29:59.306Z,99.60
2023-03-24T10:32:31.595Z,100.00
2023-03-24T10:35:08.403Z,100.00
2023-03-24T10:37:36.606Z,100.00
2023-03-24T10:40:15.819Z,100.00
2023-03-24T10:42:44.428Z,100.00
2023-03-24T10:45:18.269Z,100.00
2023-03-24T10:47:46.926Z,100.00
2023-03-24T10:50:17.190Z,99.90
2023-03-24T10:52:48.108Z,100.00
2023-03-24T10:55:18.444Z,100.00
2023-03-24T10:57:47.734Z,100.00
2023-03-24T11:00:26.052Z,100.00
2023-03-24T11:02:57.332Z,100.00
2023-03-24T11:05:30.207Z,100.00
2023-03-24T11:08:12.348Z,100.00
2023-03-24T11:10:39.597Z,100.00
2023-03-24T11:13:18.829Z,100.00
2023-03-24T11:16:14.024Z,100.00
2023-03-24T11:18:56.686Z,98.84
2023-03-24T11:21:23.947Z,100.00
2023-03-24T11:23:50.766Z,100.00
2023-03-24T11:26:22.126Z,100.00
2023-03-24T11:28:55.529Z,100.00
2023-03-24T11:31:25.810Z,100.00
2023-03-24T11:34:07.889Z,100.00
2023-03-24T11:36:43.840Z,100.00
2023-03-24T11:39:18.644Z,100.00
2023-03-24T11:42:21.581Z,100.00
2023-03-24T11:44:51.588Z,100.00
2023-03-24T11:47:37.455Z,100.00
2023-03-24T11:50:26.587Z,100.00
2023-03-24T11:53:00.524Z,100.00
2023-03-24T11:55:37.712Z,100.00
2023-03-24T11:58:12.640Z,100.00
2023-03-24T12:00:46.316Z,100.00
2023-03-24T12:03:49.454Z,100.00
2023-03-24T12:06:33.391Z,100.00
2023-03-24T12:09:10.900Z,100.00
2023-03-24T12:12:18.194Z,100.00
2023-03-24T12:15:24.525Z,100.00
2023-03-24T12:18:08.134Z,99.26
2023-03-24T12:20:50.564Z,99.27
2023-03-24T12:23:32.967Z,97.24
2023-03-24T12:26:14.085Z,97.35
2023-03-24T12:29:20.761Z,97.10
2023-03-24T12:31:54.385Z,95.20
2023-03-24T12:34:43.018Z,93.78
2023-03-24T12:37:30.493Z,92.05
2023-03-24T12:40:24.652Z,85.72
2023-03-24T12:43:03.916Z,82.31
2023-03-24T12:45:45.251Z,82.90
2023-03-24T12:48:28.451Z,83.87
2023-03-24T12:51:34.646Z,86.37
2023-03-24T12:54:26.960Z,88.03
2023-03-24T12:57:00.168Z,89.73
2023-03-24T12:59:51.754Z,89.51
2023-03-24T13:02:44.268Z,89.27
2023-03-24T13:05:23.709Z,88.47
2023-03-24T13:07:57.299Z,89.85
2023-03-24T13:10:27.355Z,89.82
2023-03-24T13:13:02.098Z,90.59
2023-03-24T13:15:39.678Z,91.33
2023-03-24T13:18:34.671Z,93.46
2023-03-24T13:21:14.462Z,94.32
2023-03-24T13:24:06.289Z,94.16
2023-03-24T13:26:53.748Z,94.46
2023-03-24T13:29:48.395Z,95.30
2023-03-24T13:32:24.261Z,95.45
2023-03-24T13:35:30.816Z,96.49
2023-03-24T13:38:05.277Z,95.55
2023-03-24T13:40:38.645Z,91.52
2023-03-24T13:43:11.544Z,78.98
2023-03-24T13:45:47.216Z,69.81
2023-03-24T13:48:25.538Z,65.70
2023-03-24T13:51:06.761Z,63.62
2023-03-24T13:53:43.100Z,61.00
2023-03-24T13:56:13.624Z,60.33
2023-03-24T13:59:04.401Z,59.04
2023-03-24T14:01:35.797Z,58.22
2023-03-24T14:04:25.408Z,56.60
2023-03-24T14:06:55.128Z,56.09
2023-03-24T14:09:25.247Z,56.10
2023-03-24T14:12:20.128Z,57.40
2023-03-24T14:15:15.530Z,58.58
2023-03-24T14:17:45.440Z,66.03
2023-03-24T14:20:23.378Z,74.50
2023-03-24T14:22:51.102Z,78.80
2023-03-24T14:25:23.378Z,83.06
2023-03-24T14:27:52.037Z,85.03
2023-03-24T14:30:29.895Z,87.52
2023-03-24T14:32:59.541Z,89.91
2023-03-24T14:35:38.965Z,90.85
2023-03-24T14:38:21.724Z,86.05
2023-03-24T14:40:52.278Z,82.21
2023-03-24T14:43:27.820Z,77.12
2023-03-24T14:45:59.389Z,70.57
2023-03-24T14:48:31.722Z,65.91
2023-03-24T14:51:05.589Z,65.75
2023-03-24T14:53:37.150Z,63.63
2023-03-24T14:56:07.394Z,66.35
2023-03-24T14:58:38.424Z,72.34
2023-03-24T15:01:07.960Z,78.19
2023-03-24T15:03:49.800Z,82.61
2023-03-24T15:06:19.432Z,84.38
2023-03-24T15:08:50.872Z,84.83
2023-03-24T15:11:23.708Z,88.41
2023-03-24T15:13:52.783Z,87.94
2023-03-24T15:16:24.864Z,88.45
2023-03-24T15:19:20.986Z,89.40
2023-03-24T15:21:57.941Z,91.33
2023-03-24T15:24:30.298Z,91.52
2023-03-24T15:27:19.978Z,92.15
2023-03-24T15:29:53.986Z,93.10
2023-03-24T15:32:23.991Z,93.33
2023-03-24T15:34:53.735Z,93.70
2023-03-24T15:37:24.042Z,93.91
2023-03-24T15:40:01.830Z,94.02
2023-03-24T15:42:45.142Z,93.75
2023-03-24T15:45:26.797Z,95.04
2023-03-24T15:47:55.347Z,95.64
2023-03-24T15:50:40.084Z,95.21
2023-03-24T15:53:24.463Z,95.22
2023-03-24T15:56:17.116Z,95.31
2023-03-24T15:58:48.867Z,95.79
2023-03-24T16:01:20.438Z,97.22
2023-03-24T16:03:47.713Z,98.07
2023-03-24T16:06:25.042Z,98.66
2023-03-24T16:08:52.390Z,98.88
2023-03-24T16:11:18.850Z,97.30
2023-03-24T16:13:47.432Z,97.79
2023-03-24T16:16:27.331Z,97.74
2023-03-24T16:18:55.945Z,97.73
2023-03-24T16:21:26.381Z,98.09
2023-03-24T16:23:55.243Z,99.52
2023-03-24T16:26:25.052Z,99.22
2023-03-24T16:28:53.173Z,98.80
2023-03-24T16:31:30.214Z,99.63
2023-03-24T16:33:58.062Z,100.00
2023-03-24T16:36:26.055Z,100.00
2023-03-24T16:38:55.837Z,100.00
2023-03-24T16:41:22.996Z,100.00
2023-03-24T16:43:50.389Z,100.00
2023-03-24T16:46:36.023Z,100.00
2023-03-24T16:49:05.308Z,100.00
2023-03-24T16:51:31.973Z,100.00
2023-03-24T16:53:58.658Z,100.00
2023-03-24T16:56:25.921Z,100.00
2023-03-24T16:58:53.840Z,100.00
2023-03-24T17:01:29.440Z,100.00
2023-03-24T17:03:58.503Z,100.00
2023-03-24T17:06:27.406Z,100.00
2023-03-24T17:08:54.435Z,100.00
2023-03-24T17:11:32.012Z,100.00
2023-03-24T17:14:04.031Z,100.00
2023-03-24T17:16:35.762Z,100.00
2023-03-24T17:19:04.122Z,99.60
2023-03-24T17:21:33.740Z,99.73
2023-03-24T17:24:00.711Z,100.00
2023-03-24T17:26:27.389Z,99.56
2023-03-24T17:28:54.190Z,99.58
2023-03-24T17:31:20.749Z,100.00
2023-03-24T17:33:47.459Z,100.00
2023-03-24T17:36:16.413Z,100.00
2023-03-24T17:38:46.477Z,100.00
2023-03-24T17:41:13.155Z,100.00
2023-03-24T17:43:39.997Z,100.00
2023-03-24T17:46:06.814Z,100.00
2023-03-24T17:48:33.663Z,100.00
2023-03-24T17:51:00.404Z,100.00
2023-03-24T17:53:27.122Z,100.00
2023-03-24T17:55:56.518Z,100.00
2023-03-24T17:58:25.983Z,100.00
2023-03-24T18:00:53.806Z,99.61
2023-03-24T18:03:22.115Z,99.88
2023-03-24T18:05:49.399Z,100.00
2023-03-24T18:08:16.065Z,100.00
2023-03-24T18:10:42.889Z,100.00
2023-03-24T18:13:10.377Z,100.00
2023-03-24T18:15:41.246Z,100.00
2023-03-24T18:18:08.548Z,100.00
2023-03-24T18:20:36.277Z,100.00
2023-03-24T18:23:03.856Z,100.00
2023-03-24T18:25:31.505Z,100.00
2023-03-24T18:27:58.049Z,100.00
2023-03-24T18:30:24.753Z,100.00
2023-03-24T18:32:51.473Z,100.00
2023-03-24T18:35:18.112Z,100.00
2023-03-24T18:37:44.917Z,100.00
2023-03-24T18:40:12.128Z,100.00
2023-03-24T18:42:39.046Z,100.00
2023-03-24T18:45:06.521Z,100.00
2023-03-24T18:47:34.384Z,100.00
2023-03-24T18:50:01.306Z,100.00
2023-03-24T18:52:29.511Z,100.00
2023-03-24T18:54:56.552Z,100.00
2023-03-24T18:57:24.235Z,100.00
2023-03-24T18:59:50.848Z,100.00
2023-03-24T19:02:17.636Z,100.00
2023-03-24T19:04:44.417Z,100.00
2023-03-24T19:07:13.925Z,100.00
2023-03-24T19:09:41.633Z,100.00
2023-03-24T19:12:09.138Z,100.00
2023-03-24T19:14:35.986Z,100.00
2023-03-24T19:17:03.168Z,100.00
2023-03-24T19:19:30.769Z,100.00
2023-03-24T19:21:58.709Z,100.00
2023-03-24T19:24:26.090Z,100.00
2023-03-24T19:26:53.492Z,100.00
2023-03-24T19:29:20.954Z,100.00
2023-03-24T19:31:48.868Z,100.00
2023-03-24T19:34:15.335Z,100.00
2023-03-24T19:36:44.013Z,100.00
2023-03-24T19:39:13.328Z,100.00
2023-03-24T19:41:40.682Z,100.00
2023-03-24T19:44:07.594Z,100.00
2023-03-24T19:46:34.454Z,100.00
2023-03-24T19:49:03.752Z,100.00
2023-03-24T19:51:30.452Z,100.00
2023-03-24T19:53:58.583Z,100.00
2023-03-24T19:56:25.212Z,97.47
2023-03-24T19:58:51.939Z,96.60
2023-03-24T20:01:20.712Z,96.58
2023-03-24T20:03:47.532Z,99.05
2023-03-24T20:06:14.211Z,97.55
2023-03-24T20:08:40.818Z,93.92
2023-03-24T20:11:10.352Z,88.59
2023-03-24T20:13:37.211Z,87.43
2023-03-24T20:16:04.113Z,88.71
2023-03-24T20:18:31.125Z,94.00
2023-03-24T20:21:00.702Z,92.54
2023-03-24T20:23:27.838Z,91.91
2023-03-24T20:25:59.215Z,89.73
2023-03-24T20:28:26.699Z,88.38
2023-03-24T20:31:02.713Z,90.17
2023-03-24T20:33:30.025Z,86.28
2023-03-24T20:35:56.842Z,87.75
2023-03-24T20:38:24.168Z,86.39
2023-03-24T20:41:00.722Z,87.84
2023-03-24T20:43:28.015Z,90.69
2023-03-24T20:45:56.595Z,92.69
2023-03-24T20:48:24.313Z,89.98
2023-03-24T20:50:50.852Z,89.48
2023-03-24T20:53:17.970Z,87.65
2023-03-24T20:55:48.483Z,84.56
2023-03-24T20:58:16.238Z,83.75
2023-03-24T21:00:46.670Z,83.89
2023-03-24T21:03:13.239Z,84.40
2023-03-24T21:05:39.824Z,83.25
2023-03-24T21:08:06.583Z,83.16
2023-03-24T21:10:35.933Z,83.99
2023-03-24T21:13:03.742Z,84.80
2023-03-24T21:15:31.110Z,84.87
2023-03-24T21:17:58.091Z,84.28
2023-03-24T21:20:27.721Z,83.10
2023-03-24T21:22:55.100Z,82.83
2023-03-24T21:25:26.123Z,82.47
2023-03-24T21:27:54.113Z,82.77
2023-03-24T21:30:21.444Z,82.20
2023-03-24T21:32:50.544Z,83.57
2023-03-24T21:35:19.072Z,84.01
2023-03-24T21:37:46.358Z,83.35
2023-03-24T21:40:17.179Z,85.48
2023-03-24T21:42:46.114Z,84.73
2023-03-24T21:45:16.597Z,85.16
2023-03-24T21:47:45.410Z,84.20
2023-03-24T21:50:18.207Z,82.69
2023-03-24T21:52:46.875Z,84.20
2023-03-24T21:55:15.226Z,83.96
2023-03-24T21:57:43.633Z,84.04
2023-03-24T22:00:14.210Z,88.38
2023-03-24T22:02:44.844Z,88.93
2023-03-24T22:05:13.289Z,90.43
2023-03-24T22:07:40.679Z,93.47
2023-03-24T22:10:09.908Z,93.49
2023-03-24T22:12:36.419Z,94.74
2023-03-24T22:15:03.461Z,95.79
2023-03-24T22:17:30.706Z,93.01
2023-03-24T22:19:57.187Z,92.02
2023-03-24T22:22:23.678Z,92.00
2023-03-24T22:24:50.666Z,92.26
2023-03-24T22:27:17.265Z,89.09
2023-03-24T22:29:43.790Z,86.63
2023-03-24T22:32:10.539Z,86.14
2023-03-24T22:34:37.161Z,83.55
2023-03-24T22:37:03.572Z,82.81
2023-03-24T22:39:31.337Z,83.03
2023-03-24T22:41:57.922Z,82.81
2023-03-24T22:44:24.602Z,82.65
2023-03-24T22:46:51.396Z,82.46
2023-03-24T22:49:18.079Z,82.74
2023-03-24T22:51:44.664Z,83.83
2023-03-24T22:54:11.462Z,85.10
2023-03-24T22:56:37.954Z,88.02
2023-03-24T22:59:04.567Z,89.54
2023-03-24T23:01:31.416Z,87.63
2023-03-24T23:03:57.932Z,87.00
2023-03-24T23:06:24.493Z,87.28
2023-03-24T23:08:52.878Z,84.65
2023-03-24T23:11:19.546Z,83.03
2023-03-24T23:13:49.705Z,81.21
2023-03-24T23:16:17.118Z,81.18
2023-03-24T23:18:44.020Z,82.50
2023-03-24T23:21:14.414Z,82.45
2023-03-24T23:23:42.325Z,82.60
2023-03-24T23:26:13.150Z,85.60
2023-03-24T23:28:52.771Z,86.49
2023-03-24T23:31:23.965Z,87.18
2023-03-24T23:33:55.773Z,86.82
2023-03-24T23:36:25.516Z,85.11
2023-03-24T23:38:54.012Z,83.19
2023-03-24T23:41:21.105Z,83.77
2023-03-24T23:43:49.657Z,85.42
2023-03-24T23:46:17.727Z,88.36
2023-03-24T23:48:44.242Z,94.35
2023-03-24T23:51:11.401Z,95.92
2023-03-24T23:53:39.231Z,96.18
2023-03-24T23:56:08.148Z,97.17
2023-03-24T23:58:37.541Z,94.23
